sensor_id;sensor_type;location;lat;lon;timestamp;pressure;altitude;pressure_sealevel;temperature;humidity
25156;BME280;21913;52.456;13.634;2023-03-21T00:03:42;100394.44;;;11.85;72.92
25156;BME280;21913;52.456;13.634;2023-03-21T00:08:43;100397.91;;;11.84;72.89
25156;BME280;21913;52.456;13.634;2023-03-21T00:13:45;100391.84;;;11.85;72.87
25156;BME280;21913;52.456;13.634;2023-03-21T00:18:48;100379.75;;;11.84;72.88
25156;BME280;21913;52.456;13.634;2023-03-21T00:23:50;100380.59;;;11.84;72.85
25156;BME280;21913;52.456;13.634;2023-03-21T00:28:51;100373.69;;;11.83;72.97
25156;BME280;21913;52.456;13.634;2023-03-21T00:33:54;100368.50;;;11.83;73.01
25156;BME280;21913;52.456;13.634;2023-03-21T00:38:57;100371.97;;;11.84;72.93
25156;BME280;21913;52.456;13.634;2023-03-21T00:43:59;100366.78;;;11.84;72.96
25156;BME280;21913;52.456;13.634;2023-03-21T00:49:01;100368.50;;;11.85;72.93
25156;BME280;21913;52.456;13.634;2023-03-21T00:54:03;100358.13;;;11.85;73.05
25156;BME280;21913;52.456;13.634;2023-03-21T00:59:04;100354.69;;;11.84;72.94
25156;BME280;21913;52.456;13.634;2023-03-21T01:04:06;100353.81;;;11.84;72.97
25156;BME280;21913;52.456;13.634;2023-03-21T01:09:13;100354.69;;;11.84;73.10
25156;BME280;21913;52.456;13.634;2023-03-21T01:14:17;100347.75;;;11.85;73.05
25156;BME280;21913;52.456;13.634;2023-03-21T01:19:24;100334.81;;;11.85;72.97
25156;BME280;21913;52.456;13.634;2023-03-21T01:24:38;100336.53;;;11.84;72.90
25156;BME280;21913;52.456;13.634;2023-03-21T01:29:50;100333.06;;;11.84;72.94
25156;BME280;21913;52.456;13.634;2023-03-21T01:34:52;100333.06;;;11.84;73.00
25156;BME280;21913;52.456;13.634;2023-03-21T01:39:55;100322.72;;;11.84;73.05
25156;BME280;21913;52.456;13.634;2023-03-21T01:45:04;100327.03;;;11.85;72.91
25156;BME280;21913;52.456;13.634;2023-03-21T01:50:11;100316.66;;;11.83;73.09
25156;BME280;21913;52.456;13.634;2023-03-21T01:55:28;100313.22;;;11.83;73.00
25156;BME280;21913;52.456;13.634;2023-03-21T02:00:32;100313.19;;;11.84;73.22
25156;BME280;21913;52.456;13.634;2023-03-21T02:11:01;100306.28;;;11.83;73.02
25156;BME280;21913;52.456;13.634;2023-03-21T02:16:21;100290.72;;;11.83;72.94
25156;BME280;21913;52.456;13.634;2023-03-21T02:38:07;100279.50;;;11.83;73.00
25156;BME280;21913;52.456;13.634;2023-03-21T02:43:26;100271.72;;;11.83;73.03
25156;BME280;21913;52.456;13.634;2023-03-21T02:48:35;100267.41;;;11.83;73.24
25156;BME280;21913;52.456;13.634;2023-03-21T02:53:58;100258.75;;;11.83;73.01
25156;BME280;21913;52.456;13.634;2023-03-21T02:59:21;100265.66;;;11.81;72.96
25156;BME280;21913;52.456;13.634;2023-03-21T03:04:26;100259.63;;;11.82;73.00
25156;BME280;21913;52.456;13.634;2023-03-21T03:10:10;100252.72;;;11.82;73.00
25156;BME280;21913;52.456;13.634;2023-03-21T03:15:23;100254.44;;;11.82;73.11
25156;BME280;21913;52.456;13.634;2023-03-21T03:20:42;100251.84;;;11.82;73.00
25156;BME280;21913;52.456;13.634;2023-03-21T03:25:50;100257.03;;;11.83;73.17
25156;BME280;21913;52.456;13.634;2023-03-21T03:30:53;100250.13;;;11.84;73.07
25156;BME280;21913;52.456;13.634;2023-03-21T03:36:15;100245.81;;;11.83;73.02
25156;BME280;21913;52.456;13.634;2023-03-21T03:41:57;100244.09;;;11.82;73.04
25156;BME280;21913;52.456;13.634;2023-03-21T03:47:43;100248.41;;;11.83;73.08
25156;BME280;21913;52.456;13.634;2023-03-21T03:53:04;100241.50;;;11.82;73.18
25156;BME280;21913;52.456;13.634;2023-03-21T03:58:18;100244.94;;;11.82;73.19
25156;BME280;21913;52.456;13.634;2023-03-21T04:03:25;100235.44;;;11.83;73.09
25156;BME280;21913;52.456;13.634;2023-03-21T04:08:27;100239.75;;;11.82;73.11
25156;BME280;21913;52.456;13.634;2023-03-21T04:13:32;100231.13;;;11.82;73.04
25156;BME280;21913;52.456;13.634;2023-03-21T04:18:42;100224.19;;;11.82;73.02
25156;BME280;21913;52.456;13.634;2023-03-21T04:23:44;100231.09;;;11.83;73.06
25156;BME280;21913;52.456;13.634;2023-03-21T04:28:46;100235.44;;;11.81;73.16
25156;BME280;21913;52.456;13.634;2023-03-21T04:33:51;100223.34;;;11.82;73.18
25156;BME280;21913;52.456;13.634;2023-03-21T04:38:53;100224.19;;;11.82;73.08
25156;BME280;21913;52.456;13.634;2023-03-21T04:43:55;100216.44;;;11.82;73.17
25156;BME280;21913;52.456;13.634;2023-03-21T04:48:56;100213.84;;;11.82;73.07
25156;BME280;21913;52.456;13.634;2023-03-21T04:53:58;100207.78;;;11.82;72.99
25156;BME280;21913;52.456;13.634;2023-03-21T04:59:05;100204.31;;;11.83;73.03
25156;BME280;21913;52.456;13.634;2023-03-21T05:04:08;100200.88;;;11.82;73.05
25156;BME280;21913;52.456;13.634;2023-03-21T05:09:11;100189.66;;;11.82;73.18
25156;BME280;21913;52.456;13.634;2023-03-21T05:14:16;100198.28;;;11.82;73.09
25156;BME280;21913;52.456;13.634;2023-03-21T05:19:19;100205.19;;;11.82;73.18
25156;BME280;21913;52.456;13.634;2023-03-21T05:24:21;100201.75;;;11.81;73.26
25156;BME280;21913;52.456;13.634;2023-03-21T05:29:24;100202.59;;;11.82;73.19
25156;BME280;21913;52.456;13.634;2023-03-21T05:34:35;100203.47;;;11.82;73.03
25156;BME280;21913;52.456;13.634;2023-03-21T05:39:37;100194.81;;;11.82;73.18
25156;BME280;21913;52.456;13.634;2023-03-21T05:44:48;100193.06;;;11.81;73.18
25156;BME280;21913;52.456;13.634;2023-03-21T05:49:53;100195.69;;;11.82;73.08
25156;BME280;21913;52.456;13.634;2023-03-21T05:54:56;100199.16;;;11.81;73.09
25156;BME280;21913;52.456;13.634;2023-03-21T06:00:00;100201.75;;;11.81;73.13
25156;BME280;21913;52.456;13.634;2023-03-21T06:05:04;100206.94;;;11.81;73.14
25156;BME280;21913;52.456;13.634;2023-03-21T06:10:07;100208.66;;;11.82;73.10
25156;BME280;21913;52.456;13.634;2023-03-21T06:15:11;100209.53;;;11.81;73.17
25156;BME280;21913;52.456;13.634;2023-03-21T06:20:39;100210.38;;;11.82;73.20
25156;BME280;21913;52.456;13.634;2023-03-21T06:25:44;100208.63;;;11.81;73.11
25156;BME280;21913;52.456;13.634;2023-03-21T06:30:46;100209.53;;;11.81;73.31
25156;BME280;21913;52.456;13.634;2023-03-21T06:35:57;100218.16;;;11.82;73.10
25156;BME280;21913;52.456;13.634;2023-03-21T06:40:59;100216.41;;;11.81;73.23
25156;BME280;21913;52.456;13.634;2023-03-21T06:46:06;100208.63;;;11.81;73.22
25156;BME280;21913;52.456;13.634;2023-03-21T06:51:07;100212.94;;;11.80;73.09
25156;BME280;21913;52.456;13.634;2023-03-21T06:56:14;100219.88;;;11.81;73.12
25156;BME280;21913;52.456;13.634;2023-03-21T07:01:16;100225.94;;;11.82;73.12
25156;BME280;21913;52.456;13.634;2023-03-21T07:06:28;100225.06;;;11.81;73.19
25156;BME280;21913;52.456;13.634;2023-03-21T07:11:30;100219.88;;;11.81;73.22
25156;BME280;21913;52.456;13.634;2023-03-21T07:16:32;100223.34;;;11.82;73.33
25156;BME280;21913;52.456;13.634;2023-03-21T07:21:33;100219.00;;;11.81;73.18
25156;BME280;21913;52.456;13.634;2023-03-21T07:26:35;100222.47;;;11.81;73.33
25156;BME280;21913;52.456;13.634;2023-03-21T07:31:37;100219.00;;;11.81;73.28
25156;BME280;21913;52.456;13.634;2023-03-21T07:36:38;100220.75;;;11.82;73.23
25156;BME280;21913;52.456;13.634;2023-03-21T07:41:40;100215.56;;;11.82;73.29
25156;BME280;21913;52.456;13.634;2023-03-21T07:46:56;100225.06;;;11.81;73.26
25156;BME280;21913;52.456;13.634;2023-03-21T07:51:58;100225.06;;;11.81;73.17
25156;BME280;21913;52.456;13.634;2023-03-21T07:56:59;100217.31;;;11.81;73.29
25156;BME280;21913;52.456;13.634;2023-03-21T08:02:01;100225.94;;;11.82;73.14
25156;BME280;21913;52.456;13.634;2023-03-21T08:07:02;100227.66;;;11.81;73.26
25156;BME280;21913;52.456;13.634;2023-03-21T08:12:04;100231.13;;;11.82;73.21
25156;BME280;21913;52.456;13.634;2023-03-21T08:17:06;100226.78;;;11.81;73.36
25156;BME280;21913;52.456;13.634;2023-03-21T08:22:07;100231.13;;;11.82;73.20
25156;BME280;21913;52.456;13.634;2023-03-21T08:27:09;100225.94;;;11.82;73.31
25156;BME280;21913;52.456;13.634;2023-03-21T08:32:10;100225.94;;;11.82;73.27
25156;BME280;21913;52.456;13.634;2023-03-21T08:37:12;100222.47;;;11.81;73.20
25156;BME280;21913;52.456;13.634;2023-03-21T08:42:13;100231.13;;;11.82;73.14
25156;BME280;21913;52.456;13.634;2023-03-21T08:47:15;100232.84;;;11.81;73.28
25156;BME280;21913;52.456;13.634;2023-03-21T08:52:16;100233.69;;;11.80;73.31
25156;BME280;21913;52.456;13.634;2023-03-21T08:57:18;100231.13;;;11.82;73.16
25156;BME280;21913;52.456;13.634;2023-03-21T09:02:19;100230.25;;;11.81;73.18
25156;BME280;21913;52.456;13.634;2023-03-21T09:07:22;100236.31;;;11.82;73.27
25156;BME280;21913;52.456;13.634;2023-03-21T09:12:23;100231.09;;;11.80;73.24
25156;BME280;21913;52.456;13.634;2023-03-21T09:17:25;100228.50;;;11.80;73.11
25156;BME280;21913;52.456;13.634;2023-03-21T09:22:26;100224.19;;;11.81;73.37
25156;BME280;21913;52.456;13.634;2023-03-21T09:27:28;100221.59;;;11.81;73.22
25156;BME280;21913;52.456;13.634;2023-03-21T09:32:29;100208.63;;;11.81;73.39
25156;BME280;21913;52.456;13.634;2023-03-21T09:37:31;100212.13;;;11.81;73.36
25156;BME280;21913;52.456;13.634;2023-03-21T09:47:40;100215.56;;;11.82;73.23
25156;BME280;21913;52.456;13.634;2023-03-21T09:52:45;100211.22;;;11.81;73.38
25156;BME280;21913;52.456;13.634;2023-03-21T10:02:58;100204.34;;;11.81;73.43
25156;BME280;21913;52.456;13.634;2023-03-21T10:08:38;100209.53;;;11.81;73.26
25156;BME280;21913;52.456;13.634;2023-03-21T10:13:43;100203.44;;;11.81;73.46
25156;BME280;21913;52.456;13.634;2023-03-21T10:18:48;100198.25;;;11.81;73.36
25156;BME280;21913;52.456;13.634;2023-03-21T10:23:51;100200.00;;;11.82;73.22
25156;BME280;21913;52.456;13.634;2023-03-21T10:28:56;100200.00;;;11.82;73.38
25156;BME280;21913;52.456;13.634;2023-03-21T10:34:02;100201.75;;;11.81;73.27
25156;BME280;21913;52.456;13.634;2023-03-21T10:39:10;100193.97;;;11.81;73.27
25156;BME280;21913;52.456;13.634;2023-03-21T10:44:18;100190.47;;;11.81;73.30
25156;BME280;21913;52.456;13.634;2023-03-21T10:49:20;100193.97;;;11.81;73.33
25156;BME280;21913;52.456;13.634;2023-03-21T10:54:27;100186.19;;;11.81;73.30
25156;BME280;21913;52.456;13.634;2023-03-21T10:59:36;100180.13;;;11.82;73.34
25156;BME280;21913;52.456;13.634;2023-03-21T11:04:39;100176.69;;;11.82;73.46
25156;BME280;21913;52.456;13.634;2023-03-21T11:09:49;100171.50;;;11.82;73.31
25156;BME280;21913;52.456;13.634;2023-03-21T11:14:54;100174.09;;;11.82;73.46
25156;BME280;21913;52.456;13.634;2023-03-21T11:19:58;100176.69;;;11.82;73.45
25156;BME280;21913;52.456;13.634;2023-03-21T11:25:02;100162.84;;;11.81;73.34
25156;BME280;21913;52.456;13.634;2023-03-21T11:30:22;100152.50;;;11.81;73.23
25156;BME280;21913;52.456;13.634;2023-03-21T11:35:27;100149.03;;;11.82;73.47
25156;BME280;21913;52.456;13.634;2023-03-21T11:40:34;100139.53;;;11.81;73.46
25156;BME280;21913;52.456;13.634;2023-03-21T11:45:36;100137.78;;;11.82;73.46
25156;BME280;21913;52.456;13.634;2023-03-21T11:50:44;100130.88;;;11.82;73.35
25156;BME280;21913;52.456;13.634;2023-03-21T11:56:15;100127.44;;;11.82;73.38
25156;BME280;21913;52.456;13.634;2023-03-21T12:06:24;100105.81;;;11.83;73.28
25156;BME280;21913;52.456;13.634;2023-03-21T12:17:03;100093.72;;;11.82;73.72
25156;BME280;21913;52.456;13.634;2023-03-21T12:22:26;100093.72;;;11.82;73.44
25156;BME280;21913;52.456;13.634;2023-03-21T12:33:13;100075.56;;;11.82;73.40
25156;BME280;21913;52.456;13.634;2023-03-21T12:38:24;100070.41;;;11.82;73.38
25156;BME280;21913;52.456;13.634;2023-03-21T12:48:42;100060.03;;;11.82;73.42
25156;BME280;21913;52.456;13.634;2023-03-21T12:53:51;100053.09;;;11.82;73.52
25156;BME280;21913;52.456;13.634;2023-03-21T12:59:02;100065.19;;;11.79;73.48
25156;BME280;21913;52.456;13.634;2023-03-21T13:04:29;100049.66;;;11.82;73.34
25156;BME280;21913;52.456;13.634;2023-03-21T13:09:35;100049.66;;;11.82;73.56
25156;BME280;21913;52.456;13.634;2023-03-21T13:14:48;100047.06;;;11.82;73.48
25156;BME280;21913;52.456;13.634;2023-03-21T13:20:00;100034.09;;;11.82;73.28
25156;BME280;21913;52.456;13.634;2023-03-21T13:25:14;100024.59;;;11.82;73.55
25156;BME280;21913;52.456;13.634;2023-03-21T13:30:22;100017.66;;;11.83;73.36
25156;BME280;21913;52.456;13.634;2023-03-21T13:35:38;100013.34;;;11.83;73.41
25156;BME280;21913;52.456;13.634;2023-03-21T13:40:56;100004.72;;;11.83;73.46
25156;BME280;21913;52.456;13.634;2023-03-21T13:51:10;99993.47;;;11.82;73.44
25156;BME280;21913;52.456;13.634;2023-03-21T14:01:35;99968.41;;;11.83;73.66
25156;BME280;21913;52.456;13.634;2023-03-21T14:06:54;99974.47;;;11.83;73.38
25156;BME280;21913;52.456;13.634;2023-03-21T14:11:57;99974.47;;;11.82;73.55
25156;BME280;21913;52.456;13.634;2023-03-21T14:17:21;99971.00;;;11.83;73.42
25156;BME280;21913;52.456;13.634;2023-03-21T14:22:23;99971.88;;;11.82;73.53
25156;BME280;21913;52.456;13.634;2023-03-21T14:27:29;99958.06;;;11.83;73.41
25156;BME280;21913;52.456;13.634;2023-03-21T14:32:31;99951.13;;;11.83;73.50
25156;BME280;21913;52.456;13.634;2023-03-21T14:37:43;99916.56;;;11.83;73.37
25156;BME280;21913;52.456;13.634;2023-03-21T14:42:47;99922.63;;;11.83;73.34
25156;BME280;21913;52.456;13.634;2023-03-21T14:48:07;99921.75;;;11.83;73.50
25156;BME280;21913;52.456;13.634;2023-03-21T14:53:15;99909.66;;;11.83;73.48
25156;BME280;21913;52.456;13.634;2023-03-21T14:58:19;99902.75;;;11.82;73.41
25156;BME280;21913;52.456;13.634;2023-03-21T15:03:21;99909.66;;;11.83;73.44
25156;BME280;21913;52.456;13.634;2023-03-21T15:08:26;99916.56;;;11.83;73.44
25156;BME280;21913;52.456;13.634;2023-03-21T15:13:49;99913.13;;;11.82;73.42
25156;BME280;21913;52.456;13.634;2023-03-21T15:18:54;99907.06;;;11.83;73.50
25156;BME280;21913;52.456;13.634;2023-03-21T15:24:19;99901.03;;;11.83;73.57
25156;BME280;21913;52.456;13.634;2023-03-21T15:29:23;99908.78;;;11.83;73.53
25156;BME280;21913;52.456;13.634;2023-03-21T15:34:28;99906.22;;;11.83;73.48
25156;BME280;21913;52.456;13.634;2023-03-21T15:39:30;99907.06;;;11.83;73.61
25156;BME280;21913;52.456;13.634;2023-03-21T15:44:33;99908.78;;;11.83;73.48
25156;BME280;21913;52.456;13.634;2023-03-21T15:49:39;99907.91;;;11.84;73.67
25156;BME280;21913;52.456;13.634;2023-03-21T15:54:46;99895.84;;;11.83;73.54
25156;BME280;21913;52.456;13.634;2023-03-21T15:59:53;99880.28;;;11.83;73.42
25156;BME280;21913;52.456;13.634;2023-03-21T16:05:21;99891.50;;;11.83;73.42
25156;BME280;21913;52.456;13.634;2023-03-21T16:10:41;99885.47;;;11.83;73.55
25156;BME280;21913;52.456;13.634;2023-03-21T16:15:43;99875.09;;;11.83;73.51
25156;BME280;21913;52.456;13.634;2023-03-21T16:20:45;99882.00;;;11.82;73.50
25156;BME280;21913;52.456;13.634;2023-03-21T16:25:47;99882.00;;;11.82;73.54
25156;BME280;21913;52.456;13.634;2023-03-21T16:30:48;99875.09;;;11.83;73.59
25156;BME280;21913;52.456;13.634;2023-03-21T16:35:50;99870.78;;;11.83;73.42
25156;BME280;21913;52.456;13.634;2023-03-21T16:40:52;99881.13;;;11.83;73.36
25156;BME280;21913;52.456;13.634;2023-03-21T16:45:53;99866.47;;;11.82;73.53
25156;BME280;21913;52.456;13.634;2023-03-21T16:50:55;99857.84;;;11.82;73.57
25156;BME280;21913;52.456;13.634;2023-03-21T16:55:56;99872.50;;;11.83;73.63
25156;BME280;21913;52.456;13.634;2023-03-21T17:00:58;99880.28;;;11.83;73.60
25156;BME280;21913;52.456;13.634;2023-03-21T17:05:59;99879.41;;;11.82;73.58
25156;BME280;21913;52.456;13.634;2023-03-21T17:11:01;99885.47;;;11.83;73.68
25156;BME280;21913;52.456;13.634;2023-03-21T17:16:03;99867.31;;;11.83;73.55
25156;BME280;21913;52.456;13.634;2023-03-21T17:21:14;99860.41;;;11.83;73.44
25156;BME280;21913;52.456;13.634;2023-03-21T17:26:20;99862.13;;;11.83;73.59
25156;BME280;21913;52.456;13.634;2023-03-21T17:31:23;99880.28;;;11.83;73.57
25156;BME280;21913;52.456;13.634;2023-03-21T17:36:36;99893.22;;;11.84;73.68
25156;BME280;21913;52.456;13.634;2023-03-21T17:41:38;99896.69;;;11.83;73.44
25156;BME280;21913;52.456;13.634;2023-03-21T17:46:40;99899.28;;;11.83;73.43
25156;BME280;21913;52.456;13.634;2023-03-21T17:51:42;99901.03;;;11.83;73.51
25156;BME280;21913;52.456;13.634;2023-03-21T17:56:43;99911.38;;;11.83;73.59
25156;BME280;21913;52.456;13.634;2023-03-21T18:01:45;99905.34;;;11.82;73.48
25156;BME280;21913;52.456;13.634;2023-03-21T18:06:46;99892.38;;;11.82;73.58
25156;BME280;21913;52.456;13.634;2023-03-21T18:11:48;99895.84;;;11.83;73.51
25156;BME280;21913;52.456;13.634;2023-03-21T18:16:49;99904.47;;;11.83;73.52
25156;BME280;21913;52.456;13.634;2023-03-21T18:21:51;99898.44;;;11.83;73.61
25156;BME280;21913;52.456;13.634;2023-03-21T18:26:52;99897.56;;;11.84;73.48
25156;BME280;21913;52.456;13.634;2023-03-21T18:31:53;99901.03;;;11.83;73.54
25156;BME280;21913;52.456;13.634;2023-03-21T18:37:07;99900.13;;;11.84;73.60
25156;BME280;21913;52.456;13.634;2023-03-21T18:42:09;99895.84;;;11.83;73.77
25156;BME280;21913;52.456;13.634;2023-03-21T18:47:17;99906.22;;;11.83;73.63
25156;BME280;21913;52.456;13.634;2023-03-21T18:52:18;99907.06;;;11.83;73.63
25156;BME280;21913;52.456;13.634;2023-03-21T18:57:20;99908.78;;;11.83;73.68
25156;BME280;21913;52.456;13.634;2023-03-21T19:02:41;99911.38;;;11.83;73.51
25156;BME280;21913;52.456;13.634;2023-03-21T19:07:47;99913.09;;;11.84;73.58
25156;BME280;21913;52.456;13.634;2023-03-21T19:12:50;99903.63;;;11.83;73.52
25156;BME280;21913;52.456;13.634;2023-03-21T19:17:54;99907.06;;;11.83;73.91
25156;BME280;21913;52.456;13.634;2023-03-21T19:23:16;99890.66;;;11.83;73.69
25156;BME280;21913;52.456;13.634;2023-03-21T19:28:18;99890.66;;;11.83;73.46
25156;BME280;21913;52.456;13.634;2023-03-21T19:33:20;99890.66;;;11.83;73.69
25156;BME280;21913;52.456;13.634;2023-03-21T19:38:22;99896.72;;;11.82;73.51
25156;BME280;21913;52.456;13.634;2023-03-21T19:43:24;99890.66;;;11.83;73.60
25156;BME280;21913;52.456;13.634;2023-03-21T19:48:33;99877.69;;;11.83;73.57
25156;BME280;21913;52.456;13.634;2023-03-21T19:53:38;99888.91;;;11.83;73.52
25156;BME280;21913;52.456;13.634;2023-03-21T19:58:40;99885.47;;;11.83;73.52
25156;BME280;21913;52.456;13.634;2023-03-21T20:03:45;99882.88;;;11.83;73.64
25156;BME280;21913;52.456;13.634;2023-03-21T20:08:46;99885.47;;;11.83;73.58
25156;BME280;21913;52.456;13.634;2023-03-21T20:14:08;99898.44;;;11.83;73.61
25156;BME280;21913;52.456;13.634;2023-03-21T20:19:11;99894.09;;;11.83;73.63
25156;BME280;21913;52.456;13.634;2023-03-21T20:24:14;99887.19;;;11.84;73.65
25156;BME280;21913;52.456;13.634;2023-03-21T20:29:15;99884.59;;;11.82;73.62
25156;BME280;21913;52.456;13.634;2023-03-21T20:34:37;99885.47;;;11.83;73.66
25156;BME280;21913;52.456;13.634;2023-03-21T20:39:38;99883.72;;;11.83;73.57
25156;BME280;21913;52.456;13.634;2023-03-21T20:44:40;99874.22;;;11.84;73.51
25156;BME280;21913;52.456;13.634;2023-03-21T20:49:57;99873.34;;;11.83;73.52
25156;BME280;21913;52.456;13.634;2023-03-21T20:54:59;99868.19;;;11.83;73.59
25156;BME280;21913;52.456;13.634;2023-03-21T21:00:00;99860.41;;;11.83;73.66
25156;BME280;21913;52.456;13.634;2023-03-21T21:05:02;99854.34;;;11.83;73.51
25156;BME280;21913;52.456;13.634;2023-03-21T21:10:24;99848.31;;;11.82;73.56
25156;BME280;21913;52.456;13.634;2023-03-21T21:15:26;99848.28;;;11.84;73.65
25156;BME280;21913;52.456;13.634;2023-03-21T21:20:27;99836.22;;;11.83;73.64
25156;BME280;21913;52.456;13.634;2023-03-21T21:25:33;99841.41;;;11.83;73.52
25156;BME280;21913;52.456;13.634;2023-03-21T21:30:38;99848.28;;;11.84;73.59
25156;BME280;21913;52.456;13.634;2023-03-21T21:35:40;99843.13;;;11.82;73.46
25156;BME280;21913;52.456;13.634;2023-03-21T21:40:41;99839.66;;;11.83;73.60
25156;BME280;21913;52.456;13.634;2023-03-21T21:45:43;99839.66;;;11.83;73.67
25156;BME280;21913;52.456;13.634;2023-03-21T21:50:48;99846.56;;;11.84;73.58
25156;BME280;21913;52.456;13.634;2023-03-21T21:55:50;99842.25;;;11.83;73.73
25156;BME280;21913;52.456;13.634;2023-03-21T22:00:57;99824.09;;;11.83;73.60
25156;BME280;21913;52.456;13.634;2023-03-21T22:06:01;99828.44;;;11.83;73.60
25156;BME280;21913;52.456;13.634;2023-03-21T22:11:04;99831.88;;;11.83;73.56
25156;BME280;21913;52.456;13.634;2023-03-21T22:16:06;99832.75;;;11.84;73.39
25156;BME280;21913;52.456;13.634;2023-03-21T22:21:08;99837.94;;;11.82;73.64
25156;BME280;21913;52.456;13.634;2023-03-21T22:26:10;99826.69;;;11.83;73.60
25156;BME280;21913;52.456;13.634;2023-03-21T22:31:13;99826.69;;;11.83;73.50
25156;BME280;21913;52.456;13.634;2023-03-21T22:36:15;99819.78;;;11.84;73.69
25156;BME280;21913;52.456;13.634;2023-03-21T22:41:17;99821.53;;;11.82;73.61
25156;BME280;21913;52.456;13.634;2023-03-21T22:46:18;99824.09;;;11.83;73.73
25156;BME280;21913;52.456;13.634;2023-03-21T22:51:19;99825.84;;;11.83;73.50
25156;BME280;21913;52.456;13.634;2023-03-21T22:56:21;99829.28;;;11.83;73.51
25156;BME280;21913;52.456;13.634;2023-03-21T23:01:22;99823.25;;;11.83;73.57
25156;BME280;21913;52.456;13.634;2023-03-21T23:06:24;99821.53;;;11.83;73.76
25156;BME280;21913;52.456;13.634;2023-03-21T23:11:25;99818.06;;;11.83;73.61
25156;BME280;21913;52.456;13.634;2023-03-21T23:16:27;99816.34;;;11.83;73.43
25156;BME280;21913;52.456;13.634;2023-03-21T23:21:28;99804.25;;;11.82;73.47
25156;BME280;21913;52.456;13.634;2023-03-21T23:26:30;99801.66;;;11.82;73.62
25156;BME280;21913;52.456;13.634;2023-03-21T23:31:32;99799.91;;;11.83;73.53
25156;BME280;21913;52.456;13.634;2023-03-21T23:36:34;99792.16;;;11.83;73.71
25156;BME280;21913;52.456;13.634;2023-03-21T23:41:35;99790.41;;;11.83;73.45
25156;BME280;21913;52.456;13.634;2023-03-21T23:46:37;99788.69;;;11.82;73.61
25156;BME280;21913;52.456;13.634;2023-03-21T23:51:38;99790.41;;;11.83;73.65
25156;BME280;21913;52.456;13.634;2023-03-21T23:56:40;99793.00;;;11.83;73.59
